Time;durP1;ratioP1;P1;durP2;ratioP2;P2;SDS_P1;SDS_P2;PMS_P1;PMS_P2;Temp;Humidity;BMP_temperature;BMP_pressure;BME280_temperature;BME280_humidity;BME280_pressure;Samples;Min_cycle;Max_cycle;Signal;HPM_P1;HPM_P2
2023/03/15 00:01:30;;;;;;;11.93;4.97;;;;;;;7.98;60.90;98208.59;6073475;23;20171;-88
2023/03/15 00:03:55;;;;;;;8.03;3.17;;;;;;;7.90;61.46;98202.13;6099591;23;20158;-88
2023/03/15 00:06:22;;;;;;;9.50;3.80;;;;;;;7.84;61.03;98198.09;6098455;23;20190;-88
2023/03/15 00:08:50;;;;;;;12.67;3.33;;;;;;;7.93;60.61;98188.91;6098615;23;20188;-88
2023/03/15 00:11:16;;;;;;;8.40;3.50;;;;;;;8.12;59.71;98184.31;6098587;23;20219;-88
2023/03/15 00:13:43;;;;;;;8.83;3.87;;;;;;;8.24;59.63;98187.97;6098836;23;20155;-88
2023/03/15 00:16:10;;;;;;;6.57;2.97;;;;;;;8.27;59.54;98180.84;6098523;23;20183;-88
2023/03/15 00:18:36;;;;;;;6.83;3.17;;;;;;;8.39;58.63;98179.28;6098469;23;20207;-87
2023/03/15 00:21:02;;;;;;;6.70;3.37;;;;;;;8.45;57.64;98173.69;6098815;23;20557;-88
2023/03/15 00:23:30;;;;;;;8.70;3.27;;;;;;;8.46;57.99;98167.56;6098532;23;20561;-88
2023/03/15 00:25:55;;;;;;;8.00;3.53;;;;;;;8.27;58.61;98165.19;6098314;23;20177;-87
2023/03/15 00:28:22;;;;;;;8.43;3.77;;;;;;;8.18;59.17;98172.66;6098686;23;20154;-88
2023/03/15 00:30:48;;;;;;;7.03;2.97;;;;;;;7.93;60.31;98162.81;6098665;23;20150;-87
2023/03/15 00:33:13;;;;;;;7.03;3.30;;;;;;;7.89;60.53;98156.06;6098378;23;20153;-87
2023/03/15 00:35:41;;;;;;;7.10;3.40;;;;;;;7.73;61.09;98156.09;6098597;23;20181;-87
2023/03/15 00:38:08;;;;;;;7.50;3.03;;;;;;;7.75;60.94;98148.22;6098640;23;20585;-87
2023/03/15 00:40:36;;;;;;;6.53;3.13;;;;;;;7.69;61.36;98145.94;6098610;23;20506;-87
2023/03/15 00:43:02;;;;;;;5.90;3.27;;;;;;;7.30;63.46;98139.44;6098542;23;20291;-87
2023/03/15 00:45:29;;;;;;;12.43;3.57;;;;;;;7.47;62.43;98133.25;6098153;23;20609;-87
2023/03/15 00:47:56;;;;;;;9.17;3.27;;;;;;;7.23;63.11;98134.66;6073093;23;20255;-87
2023/03/15 00:50:22;;;;;;;9.00;3.40;;;;;;;7.26;63.26;98124.03;6074370;23;20584;-87
2023/03/15 00:52:48;;;;;;;9.33;3.50;;;;;;;7.36;62.50;98122.63;6073425;23;20153;-87
2023/03/15 00:55:18;;;;;;;8.10;4.20;;;;;;;7.20;63.13;98116.56;6098215;23;20146;-87
2023/03/15 00:57:46;;;;;;;10.97;4.03;;;;;;;7.38;62.65;98112.94;6098767;23;20167;-88
2023/03/15 01:00:15;;;;;;;10.13;3.77;;;;;;;7.45;62.32;98109.06;6098793;23;20148;-87
2023/03/15 01:02:40;;;;;;;6.63;3.80;;;;;;;7.15;63.55;98113.38;6098001;23;20148;-87
2023/03/15 01:05:07;;;;;;;9.73;3.57;;;;;;;7.10;63.91;98112.78;6097909;23;20195;-88
2023/03/15 01:07:34;;;;;;;7.93;3.10;;;;;;;7.12;63.78;98105.72;6097887;23;20570;-87
2023/03/15 01:10:03;;;;;;;10.63;3.77;;;;;;;7.44;62.88;98102.19;6097510;23;20597;-87
2023/03/15 01:12:34;;;;;;;13.77;4.10;;;;;;;7.12;64.10;98105.72;6097899;23;20153;-87
2023/03/15 01:15:02;;;;;;;9.83;3.60;;;;;;;7.36;62.65;98089.56;6098285;23;20572;-87
2023/03/15 01:17:29;;;;;;;11.07;4.00;;;;;;;7.48;61.77;98080.22;6072728;23;20161;-87
2023/03/15 01:19:54;;;;;;;6.00;3.70;;;;;;;7.65;61.46;98081.88;6098217;23;20182;-87
2023/03/15 01:22:20;;;;;;;11.13;4.10;;;;;;;7.79;60.93;98067.09;6097825;23;20149;-88
2023/03/15 01:24:47;;;;;;;10.87;4.30;;;;;;;7.65;61.18;98066.22;6097779;23;20219;-87
2023/03/15 01:27:13;;;;;;;11.77;3.90;;;;;;;7.75;60.58;98069.97;6072677;23;20167;-87
2023/03/15 01:29:39;;;;;;;8.83;4.10;;;;;;;7.71;61.32;98068.44;6098094;23;20569;-88
2023/03/15 01:32:05;;;;;;;9.33;3.87;;;;;;;7.80;59.73;98063.56;6072971;23;20242;-88
2023/03/15 01:34:30;;;;;;;7.00;3.93;;;;;;;7.83;59.98;98068.59;6073596;23;20215;-87
2023/03/15 01:36:57;;;;;;;10.67;4.20;;;;;;;7.89;59.62;98070.81;6097781;23;20145;-87
2023/03/15 01:39:24;;;;;;;6.93;4.07;;;;;;;7.89;59.57;98068.22;6097722;23;20163;-87
2023/03/15 01:41:50;;;;;;;6.77;3.53;;;;;;;7.97;59.58;98063.41;6097709;23;20184;-88
2023/03/15 01:44:17;;;;;;;10.73;3.83;;;;;;;7.99;59.52;98069.34;6098039;23;20148;-87
2023/03/15 01:46:45;;;;;;;7.00;3.50;;;;;;;8.03;59.26;98068.25;6072209;23;20652;-88
2023/03/15 01:49:26;;;;;;;13.50;4.03;;;;;;;8.19;58.57;98064.72;6097592;23;20152;-87
2023/03/15 01:51:56;;;;;;;5.83;3.33;;;;;;;8.21;58.34;98070.69;6098358;23;20141;-87
2023/03/15 01:54:55;;;;;;;10.43;4.03;;;;;;;8.17;57.74;98077.03;6072803;23;20148;-88
2023/03/15 01:57:38;;;;;;;13.43;4.47;;;;;;;8.17;57.46;98088.31;6072531;23;20159;-87
2023/03/15 02:00:13;;;;;;;7.47;3.30;;;;;;;8.18;58.15;98091.75;6098248;23;20192;-88
2023/03/15 02:02:45;;;;;;;7.97;4.23;;;;;;;8.27;56.99;98083.41;6098187;23;20162;-88
2023/03/15 02:05:17;;;;;;;8.50;4.00;;;;;;;8.24;56.56;98084.41;6097532;23;20510;-88
2023/03/15 02:07:53;;;;;;;10.23;4.13;;;;;;;8.26;57.44;98086.91;6072393;23;20159;-88
2023/03/15 02:10:41;;;;;;;7.67;3.77;;;;;;;8.31;57.12;98085.75;6073241;23;20294;-88
2023/03/15 02:13:07;;;;;;;6.53;3.47;;;;;;;8.24;56.70;98099.22;6072343;23;20160;-88
2023/03/15 02:15:34;;;;;;;10.27;3.60;;;;;;;8.31;56.73;98096.19;6097390;23;20628;-88
2023/03/15 02:18:03;;;;;;;11.40;4.60;;;;;;;8.33;56.33;98096.13;6073303;23;20228;-87
2023/03/15 02:20:59;;;;;;;7.03;3.57;;;;;;;8.34;55.95;98093.41;6097751;23;20149;-87
2023/03/15 02:23:26;;;;;;;8.63;3.63;;;;;;;8.34;55.75;98103.00;6072623;23;20184;-88
2023/03/15 02:26:23;;;;;;;10.53;3.77;;;;;;;8.31;55.50;98096.19;6072389;23;20656;-88
2023/03/15 02:28:49;;;;;;;7.63;4.00;;;;;;;8.31;55.66;98090.97;6079049;23;20239;-87
2023/03/15 02:31:15;;;;;;;6.17;3.30;;;;;;;8.34;55.83;98085.56;6097358;23;20149;-87
2023/03/15 02:33:51;;;;;;;9.97;3.83;;;;;;;8.22;55.99;98080.22;6097288;23;20148;-87
2023/03/15 02:36:24;;;;;;;11.53;4.30;;;;;;;8.17;56.02;98077.88;6097532;23;20132;-88
2023/03/15 02:38:52;;;;;;;9.47;4.00;;;;;;;8.13;56.11;98075.53;6097866;23;20137;-88
2023/03/15 02:41:23;;;;;;;10.20;4.73;;;;;;;8.10;56.14;98087.00;6097128;23;20153;-88
2023/03/15 02:43:53;;;;;;;6.67;3.87;;;;;;;8.09;56.23;98089.69;6097112;23;20231;-87
2023/03/15 02:46:20;;;;;;;9.43;3.73;;;;;;;8.07;56.27;98083.75;6097399;23;20683;-88
2023/03/15 02:48:48;;;;;;;11.23;4.53;;;;;;;8.05;56.37;98081.19;6072251;23;20167;-88
2023/03/15 02:51:20;;;;;;;12.57;3.93;;;;;;;7.98;56.37;98080.75;6097399;23;20154;-88
2023/03/15 02:53:47;;;;;;;10.57;3.70;;;;;;;8.12;55.96;98079.94;6071767;23;20616;-89
2023/03/15 02:56:15;;;;;;;7.73;4.37;;;;;;;8.17;55.84;98067.44;6097651;23;20170;-88
2023/03/15 02:58:44;;;;;;;6.53;3.80;;;;;;;8.05;55.54;98066.38;6071864;23;20593;-89
2023/03/15 03:01:12;;;;;;;8.73;3.83;;;;;;;7.93;56.58;98071.50;6072578;23;20156;-88
2023/03/15 03:03:40;;;;;;;7.10;3.30;;;;;;;7.85;56.81;98071.94;6072774;23;20164;-89
2023/03/15 03:06:07;;;;;;;18.57;4.30;;;;;;;7.84;57.10;98061.59;6071592;23;20206;-88
2023/03/15 03:08:33;;;;;;;7.27;3.47;;;;;;;7.78;57.14;98068.00;6096973;23;20152;-88
2023/03/15 03:10:59;;;;;;;10.63;4.73;;;;;;;7.79;57.82;98061.03;6097017;23;20148;-89
2023/03/15 03:13:25;;;;;;;8.10;4.30;;;;;;;7.79;57.47;98056.66;6096884;23;20257;-88
2023/03/15 03:15:57;;;;;;;7.53;3.70;;;;;;;7.86;57.36;98060.56;6071778;23;20484;-87
2023/03/15 03:18:25;;;;;;;8.60;4.50;;;;;;;7.93;56.98;98058.47;6072485;23;20160;-87
2023/03/15 03:20:55;;;;;;;11.60;3.80;;;;;;;7.95;56.06;98054.81;6072077;23;20162;-88
2023/03/15 03:23:24;;;;;;;8.40;3.27;;;;;;;7.94;56.33;98054.91;6097304;23;20168;-88
2023/03/15 03:25:51;;;;;;;8.43;3.80;;;;;;;7.89;56.59;98063.00;6096797;23;20176;-88
2023/03/15 03:28:17;;;;;;;8.23;3.80;;;;;;;7.91;55.83;98065.53;6097184;23;20149;-88
2023/03/15 03:30:43;;;;;;;6.80;3.70;;;;;;;7.91;55.98;98070.75;6096770;23;20240;-88
2023/03/15 03:33:08;;;;;;;11.93;4.63;;;;;;;7.82;56.55;98066.91;6096562;23;20239;-88
2023/03/15 03:35:34;;;;;;;7.27;3.03;;;;;;;7.78;57.17;98065.38;6097205;23;20152;-88
2023/03/15 03:38:00;;;;;;;8.43;4.50;;;;;;;7.81;56.92;98060.00;6071658;23;20167;-89
2023/03/15 03:40:27;;;;;;;11.93;4.07;;;;;;;7.78;57.21;98062.78;6097445;23;20612;-87
2023/03/15 03:42:54;;;;;;;10.17;3.70;;;;;;;7.77;57.12;98063.72;6096799;23;20155;-88
2023/03/15 03:45:19;;;;;;;8.97;3.30;;;;;;;7.75;56.61;98065.59;6097032;23;20176;-88
2023/03/15 03:47:46;;;;;;;6.47;3.30;;;;;;;7.70;57.34;98067.63;6096774;23;20152;-88
2023/03/15 03:50:12;;;;;;;8.37;3.87;;;;;;;7.72;57.22;98065.78;6096818;23;20163;-87
2023/03/15 03:52:37;;;;;;;9.83;3.87;;;;;;;7.72;57.56;98057.09;6096783;23;20490;-88
2023/03/15 03:55:04;;;;;;;9.37;3.57;;;;;;;7.69;57.25;98071.16;6096795;23;20148;-88
2023/03/15 03:57:31;;;;;;;7.13;3.80;;;;;;;7.64;57.21;98073.19;6097388;23;20251;-88
2023/03/15 03:59:57;;;;;;;9.27;4.30;;;;;;;7.63;57.21;98074.13;6097039;23;20176;-88
2023/03/15 04:02:23;;;;;;;13.07;4.67;;;;;;;7.61;57.73;98073.38;6072796;23;20160;-87
2023/03/15 04:04:49;;;;;;;7.73;4.00;;;;;;;7.56;57.49;98064.13;6096860;23;20635;-88
2023/03/15 04:07:16;;;;;;;7.60;4.43;;;;;;;7.52;58.31;98065.25;6097073;23;20211;-88
2023/03/15 04:09:42;;;;;;;7.47;3.83;;;;;;;7.52;58.23;98060.84;6097327;23;20211;-88
2023/03/15 04:12:09;;;;;;;10.83;3.83;;;;;;;7.51;57.45;98056.56;6096949;23;20479;-87
2023/03/15 04:14:34;;;;;;;8.33;3.93;;;;;;;7.49;58.00;98058.44;6096695;23;20152;-88
2023/03/15 04:17:02;;;;;;;11.27;4.27;;;;;;;7.47;57.97;98049.84;6096681;23;20159;-88
2023/03/15 04:19:28;;;;;;;9.23;4.53;;;;;;;7.48;57.99;98055.91;6071819;23;20160;-88
2023/03/15 04:21:54;;;;;;;10.80;3.97;;;;;;;7.48;58.41;98064.56;6071766;23;20159;-88
2023/03/15 04:24:20;;;;;;;7.90;4.20;;;;;;;7.44;58.41;98052.66;6071767;23;20156;-88
2023/03/15 04:26:47;;;;;;;8.70;5.10;;;;;;;7.39;58.37;98049.44;6096523;23;20180;-88
2023/03/15 04:29:14;;;;;;;7.47;3.70;;;;;;;7.45;58.27;98056.91;6096583;23;20180;-88
2023/03/15 04:31:41;;;;;;;11.63;4.10;;;;;;;7.43;58.45;98059.63;6096575;23;20153;-88
2023/03/15 04:34:08;;;;;;;7.53;3.93;;;;;;;7.44;57.58;98063.09;6096613;23;20148;-87
2023/03/15 04:36:34;;;;;;;13.07;4.87;;;;;;;7.41;58.19;98056.28;6096549;23;20156;-88
2023/03/15 04:39:04;;;;;;;10.90;4.70;;;;;;;7.45;57.64;98046.50;6096843;23;20159;-88
2023/03/15 04:41:33;;;;;;;18.17;5.07;;;;;;;7.46;57.63;98053.41;6072266;23;20152;-88
2023/03/15 04:43:59;;;;;;;9.13;4.40;;;;;;;7.48;57.75;98043.72;6098387;23;20149;-87
2023/03/15 04:46:26;;;;;;;9.43;4.33;;;;;;;7.58;56.89;98041.41;6073870;23;20247;-88
2023/03/15 04:48:52;;;;;;;7.53;4.50;;;;;;;7.52;57.19;98045.19;6099027;23;20155;-88
2023/03/15 04:51:17;;;;;;;14.73;4.40;;;;;;;7.47;57.97;98036.81;6073765;23;20157;-88
2023/03/15 04:53:44;;;;;;;10.30;4.20;;;;;;;7.45;57.99;98041.28;6074340;23;20160;-87
2023/03/15 04:56:09;;;;;;;10.13;4.57;;;;;;;7.45;57.89;98028.25;6072859;23;20228;-87
2023/03/15 04:58:36;;;;;;;11.93;4.70;;;;;;;7.45;58.26;98020.41;6073313;23;20326;-88
2023/03/15 05:01:01;;;;;;;12.80;5.07;;;;;;;7.48;57.51;98014.19;6098333;23;20231;-88
2023/03/15 05:03:26;;;;;;;15.03;4.27;;;;;;;7.48;58.06;98020.25;6098077;23;20572;-87
2023/03/15 05:05:52;;;;;;;10.97;5.10;;;;;;;7.48;58.20;98022.84;6097820;23;20214;-88
2023/03/15 05:08:18;;;;;;;8.60;4.63;;;;;;;7.49;58.71;98027.16;6073288;23;20163;-88
2023/03/15 05:10:45;;;;;;;12.33;5.57;;;;;;;7.53;58.54;98030.41;6098262;23;20264;-88
2023/03/15 05:13:10;;;;;;;14.67;6.13;;;;;;;7.60;58.50;98032.56;6096647;23;20235;-88
2023/03/15 05:15:36;;;;;;;12.63;5.07;;;;;;;7.64;58.36;98026.25;6072851;23;20152;-88
2023/03/15 05:18:02;;;;;;;15.13;4.53;;;;;;;7.64;58.91;98033.22;6096580;23;20187;-88
2023/03/15 05:20:28;;;;;;;13.03;5.87;;;;;;;7.66;58.52;98026.16;6074043;23;20504;-88
2023/03/15 05:22:53;;;;;;;19.70;6.87;;;;;;;7.72;57.87;98028.41;6071663;23;20160;-88
2023/03/15 05:25:19;;;;;;;13.43;6.20;;;;;;;7.73;58.15;98028.31;6072310;23;20192;-88
2023/03/15 05:27:45;;;;;;;14.40;6.13;;;;;;;7.77;58.13;98032.44;6098565;23;20188;-88
2023/03/15 05:30:11;;;;;;;12.67;6.10;;;;;;;7.79;58.21;98025.34;6098549;23;20491;-88
2023/03/15 05:32:38;;;;;;;11.27;5.63;;;;;;;7.77;58.75;98028.97;6072942;23;20303;-87
2023/03/15 05:35:06;;;;;;;13.23;6.13;;;;;;;7.80;57.81;98023.59;6097782;23;20276;-88
2023/03/15 05:37:31;;;;;;;14.33;4.90;;;;;;;7.86;57.83;98018.84;6097758;23;20160;-88
2023/03/15 05:39:58;;;;;;;12.17;5.10;;;;;;;7.82;58.16;98025.19;6072914;23;20156;-88
2023/03/15 05:42:26;;;;;;;14.23;5.53;;;;;;;7.90;58.55;98022.97;6098108;23;20178;-88
2023/03/15 05:44:52;;;;;;;12.00;5.40;;;;;;;7.98;58.29;98015.50;6072472;23;20541;-88
2023/03/15 05:47:18;;;;;;;13.53;6.17;;;;;;;8.00;58.52;98018.00;6072721;23;20196;-88
2023/03/15 05:49:44;;;;;;;11.20;5.83;;;;;;;8.04;58.10;98030.78;6072485;23;20236;-88
2023/03/15 05:52:09;;;;;;;16.20;7.03;;;;;;;8.03;58.29;98023.91;6072377;23;20160;-88
2023/03/15 05:54:35;;;;;;;15.83;6.70;;;;;;;8.09;57.95;98021.84;6097328;23;20637;-87
2023/03/15 05:57:00;;;;;;;20.90;8.37;;;;;;;8.21;57.78;98023.72;6097559;23;20228;-88
2023/03/15 05:59:28;;;;;;;18.23;7.20;;;;;;;8.33;58.04;98031.66;6097417;23;20554;-87
2023/03/15 06:01:53;;;;;;;21.73;7.50;;;;;;;8.55;57.41;98018.97;6072519;23;20192;-87
2023/03/15 06:04:19;;;;;;;27.13;9.00;;;;;;;8.96;56.80;98032.03;6072396;23;20168;-88
2023/03/15 06:06:44;;;;;;;12.17;6.30;;;;;;;9.47;56.27;98027.84;6098170;23;20329;-88
2023/03/15 06:09:10;;;;;;;10.97;5.20;;;;;;;9.92;54.29;98018.72;6098156;23;20164;-89
2023/03/15 06:11:35;;;;;;;10.77;5.57;;;;;;;10.33;52.45;98021.97;6097397;23;20164;-88
2023/03/15 06:14:01;;;;;;;9.47;5.20;;;;;;;10.67;51.06;98006.50;6097399;23;20521;-88
2023/03/15 06:16:26;;;;;;;8.93;5.43;;;;;;;10.70;50.32;98008.91;6097372;23;20575;-88
2023/03/15 06:18:52;;;;;;;14.37;6.23;;;;;;;10.67;50.35;98017.00;6072248;23;20152;-88
2023/03/15 06:21:17;;;;;;;11.87;5.30;;;;;;;10.73;50.22;98011.31;6072742;23;20161;-88
2023/03/15 06:23:42;;;;;;;14.47;6.00;;;;;;;10.92;50.23;97990.72;6072224;23;20164;-88
2023/03/15 06:26:08;;;;;;;14.57;6.07;;;;;;;11.16;49.34;97994.19;6097894;23;20204;-88
2023/03/15 06:28:34;;;;;;;13.57;5.90;;;;;;;11.42;48.89;97984.41;6072106;23;20156;-87
2023/03/15 06:31:07;;;;;;;12.70;6.17;;;;;;;11.65;48.74;97992.25;6072590;23;20160;-88
2023/03/15 06:33:32;;;;;;;12.03;6.53;;;;;;;11.99;48.03;97998.44;6072191;23;20152;-88
2023/03/15 06:35:58;;;;;;;12.17;7.27;;;;;;;12.33;46.61;97991.41;6073170;23;20156;-88
2023/03/15 06:38:23;;;;;;;11.13;6.20;;;;;;;12.56;46.08;97998.34;6097492;23;20149;-88
2023/03/15 06:40:49;;;;;;;14.17;6.80;;;;;;;12.80;45.34;97999.03;6072438;23;20167;-88
2023/03/15 06:43:18;;;;;;;12.43;6.67;;;;;;;13.07;45.17;98003.06;6072453;23;20156;-89
2023/03/15 06:45:45;;;;;;;15.87;7.17;;;;;;;13.26;44.09;98005.91;6071898;23;20184;-89
2023/03/15 06:48:12;;;;;;;19.60;7.60;;;;;;;13.23;44.37;98003.50;6072301;23;20162;-88
2023/03/15 06:50:38;;;;;;;12.90;6.40;;;;;;;13.19;43.96;98002.91;6097131;23;20223;-88
2023/03/15 06:53:03;;;;;;;12.03;5.90;;;;;;;13.07;43.59;98001.28;6071940;23;20157;-88
2023/03/15 06:55:28;;;;;;;16.10;6.90;;;;;;;12.71;44.06;98004.19;6097378;23;20581;-89
2023/03/15 06:57:54;;;;;;;12.30;6.53;;;;;;;12.19;45.30;98008.22;6097061;23;20491;-89
2023/03/15 07:00:20;;;;;;;16.23;7.13;;;;;;;11.91;46.52;97999.97;6096994;23;20148;-89
2023/03/15 07:02:45;;;;;;;14.77;6.33;;;;;;;11.93;46.22;98005.91;6071880;23;20243;-89
2023/03/15 07:05:11;;;;;;;12.33;6.43;;;;;;;12.08;46.47;98000.34;6072049;23;20168;-89
2023/03/15 07:07:36;;;;;;;14.17;6.83;;;;;;;11.92;46.82;98006.91;6096661;23;20132;-89
2023/03/15 07:10:01;;;;;;;11.07;5.47;;;;;;;11.47;47.82;98009.34;6097294;23;20148;-89
2023/03/15 07:12:27;;;;;;;11.90;5.40;;;;;;;11.36;48.61;98014.56;6071880;23;20152;-89
2023/03/15 07:14:52;;;;;;;13.97;7.50;;;;;;;11.40;49.31;98020.41;6096959;23;20179;-88
2023/03/15 07:17:18;;;;;;;12.57;6.40;;;;;;;11.56;49.36;98011.28;6097230;23;20480;-89
2023/03/15 07:19:43;;;;;;;11.40;6.07;;;;;;;11.79;48.32;98009.63;6072193;23;20239;-89
2023/03/15 07:22:09;;;;;;;11.93;5.77;;;;;;;11.90;47.76;98008.78;6072168;23;20223;-88
2023/03/15 07:24:34;;;;;;;16.10;7.57;;;;;;;11.92;47.12;98004.28;6071958;23;20163;-88
2023/03/15 07:27:00;;;;;;;10.63;6.20;;;;;;;11.95;48.09;97998.78;6096736;23;20204;-88
2023/03/15 07:29:25;;;;;;;15.53;7.83;;;;;;;11.70;48.47;98000.63;6096841;23;20184;-88
2023/03/15 07:31:53;;;;;;;23.63;7.20;;;;;;;11.81;49.76;97996.34;6096908;23;20163;-89
2023/03/15 07:34:18;;;;;;;14.73;6.37;;;;;;;11.75;47.90;98002.06;6096884;23;20175;-89
2023/03/15 07:36:44;;;;;;;14.33;6.63;;;;;;;12.00;49.78;97991.41;6097219;23;20568;-88
2023/03/15 07:39:10;;;;;;;14.00;7.83;;;;;;;12.08;48.99;97995.09;6097187;23;20152;-88
2023/03/15 07:41:36;;;;;;;13.23;6.97;;;;;;;12.38;47.82;97991.88;6096820;23;20156;-89
2023/03/15 07:44:01;;;;;;;14.57;7.30;;;;;;;12.63;48.53;97991.63;6072016;23;20180;-88
2023/03/15 07:46:26;;;;;;;18.10;7.33;;;;;;;12.68;46.02;97994.72;6071588;23;20242;-88
2023/03/15 07:48:52;;;;;;;14.90;6.63;;;;;;;12.94;47.96;97995.31;6071336;23;20554;-89
2023/03/15 07:51:17;;;;;;;16.20;7.40;;;;;;;12.95;45.78;97987.28;6071698;23;20558;-89
2023/03/15 07:53:55;;;;;;;14.27;7.20;;;;;;;13.26;47.80;97980.38;6071930;23;20161;-89
2023/03/15 07:56:32;;;;;;;12.13;6.20;;;;;;;13.51;45.40;97977.44;6096928;23;20153;-89
2023/03/15 07:58:57;;;;;;;11.87;7.27;;;;;;;13.64;45.45;97979.88;6071531;23;20144;-89
2023/03/15 08:01:22;;;;;;;17.23;7.53;;;;;;;13.73;44.35;97978.28;6097103;23;20164;-88
2023/03/15 08:03:48;;;;;;;11.30;5.83;;;;;;;13.93;44.32;97975.63;6071542;23;20232;-88
2023/03/15 08:06:13;;;;;;;12.00;6.13;;;;;;;14.06;45.71;97968.38;6096713;23;20216;-88
2023/03/15 08:08:39;;;;;;;10.60;5.47;;;;;;;14.26;44.61;97942.09;6097062;23;20150;-88
2023/03/15 08:11:05;;;;;;;10.13;6.13;;;;;;;14.26;45.01;97956.09;6096764;23;20190;-89
2023/03/15 08:13:31;;;;;;;10.70;5.53;;;;;;;14.52;44.03;97943.31;6071974;23;20153;-89
2023/03/15 08:15:56;;;;;;;11.50;5.17;;;;;;;14.79;43.52;97927.72;6097098;23;20151;-89
2023/03/15 08:18:22;;;;;;;12.33;5.83;;;;;;;14.86;41.69;97923.56;6097867;23;20153;-89
2023/03/15 08:20:47;;;;;;;12.07;5.30;;;;;;;14.52;42.11;97930.13;6098846;23;20205;-89
2023/03/15 08:23:15;;;;;;;9.03;4.97;;;;;;;14.86;41.38;97925.38;6098549;23;20155;-89
2023/03/15 08:25:41;;;;;;;11.63;4.67;;;;;;;15.02;41.60;97929.13;6098736;23;20268;-89
2023/03/15 08:28:08;;;;;;;12.17;4.97;;;;;;;15.17;41.07;97933.03;6098734;23;20159;-90
2023/03/15 08:30:33;;;;;;;11.33;5.17;;;;;;;15.29;41.60;97921.38;6098463;23;20153;-89
2023/03/15 08:32:59;;;;;;;8.37;4.90;;;;;;;15.52;40.79;97918.47;6098470;23;20599;-88
2023/03/15 08:35:24;;;;;;;8.53;5.00;;;;;;;15.62;39.58;97906.06;6098468;23;20150;-90
2023/03/15 08:37:51;;;;;;;14.23;5.33;;;;;;;15.56;40.43;97901.38;6073193;23;20160;-89
2023/03/15 08:40:24;;;;;;;11.93;5.60;;;;;;;15.70;39.07;97898.28;6098364;23;20300;-89
2023/03/15 08:42:51;;;;;;;9.93;4.47;;;;;;;15.73;40.35;97892.69;6073177;23;20216;-90
2023/03/15 08:45:16;;;;;;;10.20;4.67;;;;;;;15.78;40.20;97898.38;6098812;23;20154;-89
2023/03/15 08:47:42;;;;;;;10.00;4.77;;;;;;;15.84;40.15;97890.75;6098294;23;20229;-89
2023/03/15 08:50:19;;;;;;;9.27;4.83;;;;;;;15.87;40.17;97895.75;6073175;23;20238;-89
2023/03/15 08:52:45;;;;;;;6.90;4.10;;;;;;;15.89;39.98;97885.84;6098623;23;20138;-90
2023/03/15 08:55:13;;;;;;;14.30;5.00;;;;;;;15.91;40.38;97886.53;6073005;23;20183;-90
2023/03/15 08:57:39;;;;;;;10.10;5.23;;;;;;;15.99;39.67;97878.72;6098840;23;20156;-90
2023/03/15 09:00:07;;;;;;;13.20;7.07;;;;;;;16.04;40.28;97866.91;6098568;23;20583;-90
2023/03/15 09:02:33;;;;;;;10.77;4.80;;;;;;;16.23;40.41;97869.44;6098108;23;20291;-89
2023/03/15 09:04:58;;;;;;;11.20;4.87;;;;;;;16.24;39.56;97857.91;6098410;23;20191;-90
2023/03/15 09:07:24;;;;;;;12.97;5.67;;;;;;;16.09;39.06;97862.00;6098482;23;20178;-89
2023/03/15 09:09:53;;;;;;;11.43;5.47;;;;;;;15.84;39.50;97868.75;6072956;23;20175;-90
2023/03/15 09:12:19;;;;;;;13.50;5.40;;;;;;;15.52;39.81;97871.75;6098720;23;20151;-89
2023/03/15 09:14:45;;;;;;;10.60;5.20;;;;;;;15.88;40.32;97854.28;6098000;23;20180;-89
2023/03/15 09:17:11;;;;;;;9.63;5.20;;;;;;;15.86;40.60;97856.22;6097947;23;20657;-89
2023/03/15 09:19:36;;;;;;;9.43;4.57;;;;;;;16.20;41.01;97843.28;6098163;23;20152;-89
2023/03/15 09:22:02;;;;;;;8.60;3.97;;;;;;;16.26;39.00;97854.13;6072796;23;20573;-89
2023/03/15 09:24:28;;;;;;;12.60;4.57;;;;;;;16.68;39.60;97845.69;6072799;23;20168;-89
2023/03/15 09:26:53;;;;;;;9.73;5.30;;;;;;;17.14;39.50;97826.91;6098191;23;20180;-89
2023/03/15 09:29:19;;;;;;;12.87;4.40;;;;;;;17.46;38.69;97824.50;6097778;23;20467;-90
2023/03/15 09:31:44;;;;;;;6.77;3.63;;;;;;;17.65;38.53;97819.03;6097855;23;20214;-90
2023/03/15 09:34:09;;;;;;;5.63;2.87;;;;;;;17.86;37.24;97810.72;6073099;23;20152;-90
2023/03/15 09:36:35;;;;;;;6.67;3.10;;;;;;;17.83;36.59;97815.47;6073152;23;20246;-90
2023/03/15 09:39:01;;;;;;;6.63;3.57;;;;;;;17.65;36.90;97805.81;6097799;23;20153;-90
2023/03/15 09:41:43;;;;;;;7.90;4.10;;;;;;;17.56;36.16;97805.88;6097733;23;20561;-89
2023/03/15 09:44:23;;;;;;;8.23;3.87;;;;;;;17.53;37.24;97806.22;6072418;23;20463;-89
2023/03/15 09:47:36;;;;;;;8.50;4.13;;;;;;;17.78;37.06;97802.72;6097992;23;20173;-90
2023/03/15 09:50:04;;;;;;;12.10;3.70;;;;;;;17.80;36.62;97803.38;6087807;23;20189;-90
2023/03/15 09:52:38;;;;;;;6.97;3.30;;;;;;;17.83;37.21;97799.59;6098047;23;20211;-90
2023/03/15 09:55:09;;;;;;;8.60;4.10;;;;;;;17.63;36.48;97801.66;6098341;23;20196;-89
2023/03/15 09:57:56;;;;;;;7.13;3.37;;;;;;;17.75;37.18;97806.50;6098120;23;20148;-90
2023/03/15 10:00:40;;;;;;;10.20;3.40;;;;;;;17.93;37.77;97810.91;6072511;23;20172;-89
2023/03/15 10:03:17;;;;;;;5.17;2.97;;;;;;;18.36;36.37;97797.47;6072536;23;20167;-91
2023/03/15 10:05:46;;;;;;;5.40;3.10;;;;;;;18.39;35.35;97790.00;6072625;23;20560;-90
2023/03/15 10:08:16;;;;;;;6.77;3.00;;;;;;;17.83;36.59;97799.59;6072357;23;20185;-90
2023/03/15 10:10:47;;;;;;;5.87;3.37;;;;;;;18.09;36.37;97784.44;6072476;23;20156;-89
2023/03/15 10:13:28;;;;;;;12.70;3.50;;;;;;;18.51;37.01;97777.31;6097536;23;20248;-90
2023/03/15 10:16:26;;;;;;;5.30;2.63;;;;;;;18.09;35.32;97779.16;6072409;23;20235;-90
2023/03/15 10:19:16;;;;;;;9.10;3.10;;;;;;;18.40;36.03;97751.88;6097579;23;20160;-89
2023/03/15 10:22:12;;;;;;;7.20;3.00;;;;;;;18.12;35.55;97770.88;6097768;23;20156;-91
2023/03/15 10:25:01;;;;;;;9.03;3.47;;;;;;;18.13;36.50;97759.28;6097466;23;20141;-89
2023/03/15 10:27:46;;;;;;;11.63;3.13;;;;;;;18.54;36.13;97761.06;6098296;23;20176;-90
2023/03/15 10:30:20;;;;;;;6.87;2.93;;;;;;;18.98;35.68;97745.66;6071650;23;20160;-90
2023/03/15 10:32:52;;;;;;;6.27;2.80;;;;;;;19.13;34.80;97743.16;6072272;23;20175;-89
2023/03/15 10:35:18;;;;;;;8.27;2.50;;;;;;;19.52;34.78;97738.81;6097641;23;20145;-90
2023/03/15 10:37:44;;;;;;;5.70;2.50;;;;;;;19.68;32.81;97733.41;6097320;23;20223;-90
2023/03/15 10:40:15;;;;;;;4.20;2.10;;;;;;;19.80;32.63;97737.38;6072030;23;20163;-90
2023/03/15 10:42:43;;;;;;;7.00;3.03;;;;;;;19.97;33.51;97732.78;6097460;23;20136;-90
2023/03/15 10:45:24;;;;;;;8.43;2.83;;;;;;;20.05;32.54;97732.75;6072080;23;20153;-90
2023/03/15 10:47:51;;;;;;;5.43;2.40;;;;;;;20.21;32.36;97719.38;6098040;23;20144;-90
2023/03/15 10:50:28;;;;;;;6.37;2.20;;;;;;;20.49;30.45;97719.75;6097126;23;20178;-90
2023/03/15 10:52:58;;;;;;;4.47;1.50;;;;;;;20.10;27.87;97712.63;6097568;23;20151;-89
2023/03/15 10:55:35;;;;;;;5.13;1.30;;;;;;;20.12;25.94;97705.31;6097335;23;20161;-89
2023/03/15 10:58:19;;;;;;;10.63;1.67;;;;;;;20.27;27.76;97713.41;6097146;23;20210;-90
2023/03/15 11:01:16;;;;;;;6.77;1.43;;;;;;;20.54;26.54;97704.91;6097741;23;20159;-89
2023/03/15 11:03:42;;;;;;;2.30;1.00;;;;;;;20.27;25.78;97696.59;6097242;23;20163;-89
2023/03/15 11:06:45;;;;;;;6.83;2.03;;;;;;;20.34;25.87;97692.22;6071632;23;20358;-89
2023/03/15 11:09:24;;;;;;;4.33;1.10;;;;;;;19.55;25.40;97685.28;6058224;23;20270;-90
2023/03/15 11:11:59;;;;;;;8.07;2.40;;;;;;;19.76;26.65;97698.03;6071988;23;20156;-90
2023/03/15 11:14:39;;;;;;;4.33;1.50;;;;;;;19.90;26.77;97691.94;6097617;23;20226;-90
2023/03/15 11:17:07;;;;;;;4.07;1.00;;;;;;;19.80;26.28;97692.16;6096866;23;20143;-90
2023/03/15 11:19:40;;;;;;;4.80;1.67;;;;;;;20.10;27.34;97678.03;6071807;23;20164;-90
2023/03/15 11:22:11;;;;;;;3.80;1.20;;;;;;;20.33;25.11;97667.47;6097804;23;20576;-91
2023/03/15 11:24:37;;;;;;;1.63;0.90;;;;;;;20.25;24.23;97672.00;6097137;23;20160;-90
2023/03/15 11:27:11;;;;;;;2.47;0.53;;;;;;;19.98;24.88;97665.31;6097278;23;20566;-90
2023/03/15 11:29:38;;;;;;;2.50;0.90;;;;;;;20.02;24.39;97659.47;6098144;23;20137;-90
2023/03/15 11:32:31;;;;;;;5.53;1.43;;;;;;;19.74;24.44;97662.78;6097355;23;20238;-91
2023/03/15 11:35:09;;;;;;;5.50;1.57;;;;;;;19.83;24.94;97653.78;6067027;23;20589;-92
2023/03/15 11:38:16;;;;;;;2.50;1.20;;;;;;;19.94;23.90;97654.19;6072200;23;20239;-91
2023/03/15 11:40:46;;;;;;;1.43;0.60;;;;;;;19.61;22.54;97658.84;5980426;24;20210;-91
2023/03/15 11:43:37;;;;;;;0.90;0.40;;;;;;;19.38;22.26;97654.47;6056707;23;20192;-90